Time;durP1;ratioP1;P1;durP2;ratioP2;P2;SDS_P1;SDS_P2;PMS_P1;PMS_P2;Temp;Humidity;BMP_temperature;BMP_pressure;BME280_temperature;BME280_humidity;BME280_pressure;Samples;Min_cycle;Max_cycle;Signal;HPM_P1;HPM_P2
2022/11/25 05:11:26;;;;;;;38.38;18.40;;;;;;;5.49;84.99;100777.72;5600183;31;79142;-54
2022/11/25 05:14:29;;;;;;;32.65;18.83;;;;;;;5.49;84.99;100777.72;5602637;31;33490;-55
2022/11/25 05:17:31;;;;;;;31.02;18.85;;;;;;;5.00;86.79;100758.66;5603624;31;34531;-55
2022/11/25 05:20:34;;;;;;;34.03;18.98;;;;;;;5.09;85.79;100762.56;5602959;31;33199;-55
2022/11/25 05:23:36;;;;;;;32.50;18.73;;;;;;;5.17;83.63;100773.66;5602881;31;34185;-55
2022/11/25 05:26:39;;;;;;;31.20;20.02;;;;;;;5.24;83.07;100770.88;5602727;31;33279;-55
2022/11/25 05:29:41;;;;;;;31.15;18.25;;;;;;;5.32;83.71;100775.81;5603377;31;33392;-55
2022/11/25 05:32:44;;;;;;;29.08;18.85;;;;;;;5.47;85.10;100779.84;5603230;31;33213;-55
2022/11/25 05:35:59;;;;;;;31.23;19.98;;;;;;;5.40;87.54;100779.97;5602741;31;33396;-55
2022/11/25 05:39:02;;;;;;;29.33;18.08;;;;;;;5.63;88.46;100793.19;5603489;31;34230;-55
2022/11/25 05:42:06;;;;;;;29.80;18.80;;;;;;;5.51;97.17;100791.59;5603342;31;33639;-55
2022/11/25 05:45:10;;;;;;;29.45;18.37;;;;;;;5.51;90.41;100794.28;5603267;31;33471;-55
2022/11/25 05:48:13;;;;;;;29.67;19.12;;;;;;;5.61;81.35;100795.28;5587916;31;33167;-56
2022/11/25 05:51:16;;;;;;;27.33;18.45;;;;;;;5.37;85.32;100805.19;5583452;31;33274;-55
2022/11/25 05:54:18;;;;;;;28.10;18.70;;;;;;;5.58;92.31;100808.22;5583485;31;33465;-55
2022/11/25 05:57:20;;;;;;;27.62;17.70;;;;;;;5.49;87.36;100807.78;5590705;31;33320;-55
2022/11/25 06:00:23;;;;;;;38.83;18.92;;;;;;;5.64;100.00;100812.63;5588379;31;33374;-55
2022/11/25 06:03:28;;;;;;;30.33;18.77;;;;;;;5.63;89.90;100816.31;5589066;31;33552;-55
2022/11/25 06:06:31;;;;;;;28.58;18.17;;;;;;;5.45;81.71;100816.47;5590505;31;33204;-55
2022/11/25 06:09:34;;;;;;;35.20;19.30;;;;;;;5.25;81.22;100830.16;5577636;31;34190;-55
2022/11/25 06:12:36;;;;;;;32.40;19.45;;;;;;;5.12;82.93;100829.34;5586785;31;34317;-55
2022/11/25 06:15:41;;;;;;;28.85;18.10;;;;;;;5.32;80.56;100836.97;5582946;31;33248;-55
2022/11/25 06:18:43;;;;;;;25.02;15.88;;;;;;;5.44;96.36;100838.81;5582960;31;33504;-55
2022/11/25 06:21:46;;;;;;;30.00;18.12;;;;;;;5.33;82.83;100843.91;5574347;31;33798;-55
2022/11/25 06:24:49;;;;;;;30.42;17.20;;;;;;;5.36;83.10;100850.59;5567635;31;34316;-55
2022/11/25 06:28:02;;;;;;;26.48;17.33;;;;;;;5.38;88.83;100848.50;5559228;31;33510;-56
2022/11/25 06:31:19;;;;;;;36.53;16.37;;;;;;;5.48;83.56;100847.91;5575465;31;33266;-54
2022/11/25 06:34:23;;;;;;;35.25;18.23;;;;;;;5.60;89.68;100854.84;5581210;31;34127;-55
2022/11/25 06:37:25;;;;;;;32.90;18.83;;;;;;;5.52;94.25;100851.72;5567769;31;33621;-56
2022/11/25 06:40:27;;;;;;;42.60;18.35;;;;;;;5.48;82.78;100853.25;5569170;32;33677;-55
2022/11/25 06:43:30;;;;;;;89.82;23.35;;;;;;;5.54;91.32;100857.63;5569662;31;34271;-55
2022/11/25 06:46:32;;;;;;;56.37;22.67;;;;;;;5.42;83.79;100861.09;5575631;31;33612;-55
2022/11/25 06:49:35;;;;;;;33.83;20.70;;;;;;;5.49;81.07;100862.81;5587796;31;34464;-55
2022/11/25 06:52:37;;;;;;;37.83;22.67;;;;;;;5.52;81.59;100871.13;5574472;31;32207;-55
2022/11/25 06:55:39;;;;;;;34.78;21.42;;;;;;;5.54;81.83;100878.91;5569760;31;34245;-55
2022/11/25 06:58:43;;;;;;;34.45;21.12;;;;;;;5.60;82.01;100889.41;5578196;31;33648;-55
2022/11/25 07:01:47;;;;;;;33.47;21.55;;;;;;;5.79;85.98;100887.38;5559182;31;33717;-55
2022/11/25 07:04:49;;;;;;;32.30;20.65;;;;;;;5.79;84.48;100887.38;5560095;32;33586;-55
2022/11/25 07:07:51;;;;;;;38.53;21.25;;;;;;;5.90;84.90;100883.09;5550026;32;33594;-55
2022/11/25 07:10:54;;;;;;;31.02;20.20;;;;;;;5.77;84.47;100888.69;5567094;31;33847;-55
2022/11/25 07:14:02;;;;;;;40.97;22.45;;;;;;;5.80;83.21;100890.87;5578137;31;33712;-56
2022/11/25 07:17:06;;;;;;;38.92;22.00;;;;;;;5.81;82.01;100897.81;5556899;31;33599;-55
2022/11/25 07:20:13;;;;;;;51.37;24.08;;;;;;;5.87;83.20;100905.66;5565205;31;33725;-55
2022/11/25 07:23:15;;;;;;;44.50;24.67;;;;;;;5.98;85.93;100911.19;5557178;31;33714;-55
2022/11/25 07:26:23;;;;;;;39.58;23.00;;;;;;;6.04;85.20;100908.41;5569288;32;34207;-55
2022/11/25 07:29:26;;;;;;;35.15;21.73;;;;;;;5.94;82.27;100907.41;5565277;31;34383;-55
2022/11/25 07:32:48;;;;;;;34.85;23.70;;;;;;;5.98;86.57;100911.19;5568108;31;33641;-55
2022/11/25 07:35:51;;;;;;;37.47;22.48;;;;;;;5.99;83.05;100913.59;5558242;31;34407;-55
2022/11/25 07:38:53;;;;;;;35.80;20.80;;;;;;;6.16;86.78;100910.19;5552748;32;33725;-55
2022/11/25 07:41:56;;;;;;;37.70;23.48;;;;;;;6.46;100.00;100907.31;5558137;32;34372;-55
2022/11/25 07:44:58;;;;;;;32.58;22.02;;;;;;;6.45;85.48;100905.69;5559473;32;34267;-56
2022/11/25 07:48:01;;;;;;;46.40;22.45;;;;;;;6.36;81.40;100907.94;5550392;32;33170;-55
2022/11/25 07:51:04;;;;;;;36.47;21.42;;;;;;;6.72;79.17;100906.69;5553723;32;34161;-56
2022/11/25 07:54:12;;;;;;;38.80;21.62;;;;;;;6.68;93.60;100900.22;5554215;32;33699;-55
2022/11/25 07:57:14;;;;;;;45.85;23.20;;;;;;;6.58;81.62;100903.50;5549245;32;33233;-55
2022/11/25 08:00:17;;;;;;;41.13;21.70;;;;;;;6.74;81.09;100901.13;5549340;32;33570;-56
2022/11/25 08:03:20;;;;;;;36.40;22.05;;;;;;;6.75;80.51;100905.38;5565717;32;34259;-55
2022/11/25 08:06:25;;;;;;;39.33;23.17;;;;;;;6.90;80.39;100910.16;5568351;32;33643;-56
2022/11/25 08:09:27;;;;;;;34.25;22.52;;;;;;;7.03;79.29;100915.97;5554797;32;33536;-55
2022/11/25 08:12:31;;;;;;;34.78;22.02;;;;;;;7.02;80.09;100913.56;5549255;32;34273;-55
2022/11/25 08:15:33;;;;;;;34.60;22.42;;;;;;;7.05;83.44;100915.72;5549635;32;33895;-55
2022/11/25 08:18:35;;;;;;;33.92;23.12;;;;;;;7.16;81.03;100924.69;5552542;32;33603;-55
2022/11/25 08:21:40;;;;;;;38.15;24.17;;;;;;;7.25;78.89;100920.53;5556742;31;33835;-55
2022/11/25 08:24:43;;;;;;;35.92;22.65;;;;;;;7.31;82.22;100919.56;5549169;32;33592;-55
2022/11/25 08:27:46;;;;;;;36.22;22.35;;;;;;;7.26;79.83;100924.84;5549614;32;34389;-55
2022/11/25 08:30:49;;;;;;;35.28;22.33;;;;;;;7.28;78.65;100931.56;5549256;32;33884;-56
2022/11/25 08:33:52;;;;;;;35.08;22.45;;;;;;;7.43;77.88;100938.16;5549263;32;33363;-55
2022/11/25 08:36:54;;;;;;;38.25;22.52;;;;;;;7.46;78.42;100937.66;5556290;32;33771;-55
2022/11/25 08:39:57;;;;;;;33.55;21.40;;;;;;;7.54;80.16;100938.03;5565601;32;33608;-56
2022/11/25 08:42:59;;;;;;;37.63;23.15;;;;;;;7.63;78.13;100932.28;5551490;31;33352;-56
2022/11/25 08:46:09;;;;;;;38.30;22.92;;;;;;;7.73;77.07;100935.91;5560214;31;33662;-56
2022/11/25 08:49:12;;;;;;;33.60;21.98;;;;;;;7.89;79.15;100939.56;5565029;31;33266;-55
2022/11/25 08:52:14;;;;;;;31.70;20.85;;;;;;;7.98;75.11;100935.41;5587902;31;33728;-55
2022/11/25 08:55:16;;;;;;;36.67;22.92;;;;;;;8.03;75.73;100937.31;5567181;31;33621;-55
2022/11/25 08:58:19;;;;;;;33.85;22.05;;;;;;;8.08;73.76;100937.41;5576876;31;34221;-55
2022/11/25 09:01:22;;;;;;;30.00;20.62;;;;;;;8.23;72.71;100934.88;5568198;31;33603;-55
2022/11/25 09:04:25;;;;;;;32.83;20.58;;;;;;;8.18;73.25;100936.72;5567998;32;33636;-55
2022/11/25 09:07:27;;;;;;;31.98;19.62;;;;;;;8.21;74.96;100942.34;5568410;32;33416;-55
2022/11/25 09:10:33;;;;;;;33.33;20.42;;;;;;;8.26;73.94;100944.25;5564928;31;34313;-55
2022/11/25 09:13:35;;;;;;;30.17;19.65;;;;;;;8.31;74.35;100938.16;5558550;32;34306;-56
2022/11/25 09:16:39;;;;;;;38.33;22.23;;;;;;;8.53;85.46;100932.81;5567676;32;34344;-55
2022/11/25 09:19:41;;;;;;;37.50;21.48;;;;;;;8.57;79.30;100933.91;5567855;32;33742;-55
2022/11/25 09:22:43;;;;;;;32.10;19.45;;;;;;;8.66;72.80;100935.06;5555883;32;32365;-55
2022/11/25 09:25:53;;;;;;;31.00;18.48;;;;;;;9.08;80.74;100931.69;5564421;32;33272;-56
2022/11/25 09:28:56;;;;;;;30.80;19.52;;;;;;;9.04;72.66;100934.06;5549590;32;33697;-55
2022/11/25 09:31:58;;;;;;;30.80;19.15;;;;;;;9.00;70.27;100937.50;5563800;32;34127;-56
2022/11/25 09:35:02;;;;;;;36.65;20.15;;;;;;;8.94;70.29;100934.00;5567099;32;33939;-55
2022/11/25 09:38:04;;;;;;;32.97;19.90;;;;;;;8.93;70.01;100937.69;5563405;32;33756;-56
2022/11/25 09:48:36;;;;;;;28.85;16.70;;;;;;;8.96;70.86;100921.16;5563145;31;33656;-55
2022/11/25 09:51:55;;;;;;;29.55;18.23;;;;;;;8.98;69.45;100921.72;5561774;32;31997;-55
2022/11/25 09:55:18;;;;;;;29.37;18.30;;;;;;;9.02;70.73;100919.34;5548196;32;33645;-56
2022/11/25 09:58:27;;;;;;;35.88;20.67;;;;;;;9.02;70.92;100916.66;5556816;31;33730;-56
2022/11/25 10:01:30;;;;;;;30.23;18.98;;;;;;;9.35;80.32;100921.69;5563393;32;34102;-55
2022/11/25 10:04:39;;;;;;;40.22;23.80;;;;;;;9.81;92.57;100921.94;5564768;32;34342;-55
2022/11/25 10:07:46;;;;;;;38.15;25.20;;;;;;;9.73;71.62;100911.69;5550407;32;33749;-55
2022/11/25 10:11:05;;;;;;;36.80;23.65;;;;;;;9.62;72.72;100915.41;5552681;32;34329;-56
2022/11/25 10:14:33;;;;;;;34.38;22.08;;;;;;;9.60;71.39;100917.53;5563873;32;33300;-56
2022/11/25 10:17:50;;;;;;;39.47;25.55;;;;;;;9.89;80.89;100915.25;5561397;32;33701;-55
2022/11/25 10:20:53;;;;;;;37.65;25.83;;;;;;;9.76;70.75;100913.84;5560610;32;34191;-55
2022/11/25 10:23:55;;;;;;;39.17;24.87;;;;;;;9.72;76.55;100914.66;5559619;32;33698;-55
2022/11/25 10:27:04;;;;;;;40.80;26.17;;;;;;;9.65;70.15;100921.03;5566543;32;33696;-55
2022/11/25 10:30:21;;;;;;;32.83;24.15;;;;;;;9.60;78.23;100928.25;5575118;31;33810;-55
2022/11/25 10:33:27;;;;;;;42.92;25.65;;;;;;;9.70;83.51;100925.63;5558865;31;33631;-55
2022/11/25 10:36:38;;;;;;;37.47;23.73;;;;;;;9.67;70.61;100917.28;5562705;31;34415;-56
2022/11/25 10:39:40;;;;;;;37.28;23.45;;;;;;;9.69;73.69;100915.19;5571478;31;33606;-55
2022/11/25 10:42:42;;;;;;;35.28;23.23;;;;;;;9.61;69.23;100913.81;5587275;31;34462;-56
2022/11/25 10:45:57;;;;;;;46.10;24.50;;;;;;;9.91;72.27;100909.66;5569396;31;33860;-55
2022/11/25 10:49:37;;;;;;;37.25;23.23;;;;;;;9.81;70.88;100919.25;5569722;31;34500;-55
2022/11/25 10:52:50;;;;;;;34.55;23.27;;;;;;;9.83;71.99;100916.31;5486832;31;33772;-56
2022/11/25 10:56:02;;;;;;;37.75;22.77;;;;;;;9.78;69.02;100913.62;5571532;31;34407;-55
2022/11/25 10:59:22;;;;;;;35.42;22.77;;;;;;;9.89;71.32;100916.06;5574986;31;34143;-55
2022/11/25 11:02:47;;;;;;;32.60;20.95;;;;;;;9.95;71.61;100916.09;5564341;31;33612;-55
2022/11/25 11:05:51;;;;;;;28.80;19.40;;;;;;;10.06;75.53;100915.03;5569456;31;34001;-55
2022/11/25 11:08:53;;;;;;;34.60;20.90;;;;;;;10.00;73.65;100921.44;5574753;31;34362;-56
2022/11/25 11:11:55;;;;;;;34.50;20.37;;;;;;;9.99;69.37;100927.88;5560527;31;33639;-55
2022/11/25 11:15:39;;;;;;;27.83;19.00;;;;;;;9.99;70.03;100925.19;5552986;31;33593;-55
2022/11/25 11:18:42;;;;;;;29.83;19.27;;;;;;;10.00;73.24;100926.81;5492744;32;33526;-55
2022/11/25 11:21:45;;;;;;;26.15;18.85;;;;;;;9.98;69.99;100928.97;5572562;31;33275;-55
2022/11/25 11:25:04;;;;;;;27.65;19.27;;;;;;;10.01;71.59;100920.41;5555696;32;34364;-55
2022/11/25 11:28:31;;;;;;;30.88;18.17;;;;;;;10.09;75.08;100926.03;5556830;32;33633;-57
2022/11/25 11:31:40;;;;;;;29.17;17.83;;;;;;;10.24;73.18;100916.44;5563227;31;34241;-55
2022/11/25 11:34:43;;;;;;;26.62;18.20;;;;;;;10.47;73.68;100917.88;5568708;32;33600;-55
2022/11/25 11:37:51;;;;;;;25.80;15.88;;;;;;;10.28;70.92;100921.03;5569377;32;33679;-55
2022/11/25 11:41:19;;;;;;;22.75;14.20;;;;;;;10.52;82.15;100915.19;5567770;31;34325;-55
2022/11/25 11:44:45;;;;;;;23.73;14.98;;;;;;;10.54;74.81;100915.72;5562630;32;33755;-55
2022/11/25 11:48:14;;;;;;;20.17;12.07;;;;;;;10.57;74.29;100907.94;5561780;31;33308;-55
2022/11/25 11:51:55;;;;;;;17.20;11.45;;;;;;;10.68;74.65;100913.31;5577103;31;33857;-55
2022/11/25 11:55:13;;;;;;;19.98;11.15;;;;;;;10.52;72.80;100907.94;5502662;32;34382;-55
2022/11/25 11:58:57;;;;;;;19.77;12.85;;;;;;;10.53;71.96;100912.25;5549258;32;33858;-55
2022/11/25 12:02:20;;;;;;;19.85;12.65;;;;;;;10.56;72.79;100910.88;5551965;31;34090;-56
2022/11/25 12:05:34;;;;;;;17.20;12.05;;;;;;;10.58;72.38;100901.50;5558427;32;33330;-56
2022/11/25 12:08:45;;;;;;;19.27;11.73;;;;;;;10.53;71.42;100901.53;5552182;32;33616;-55
2022/11/25 12:11:53;;;;;;;16.95;11.02;;;;;;;10.53;71.26;100906.09;5555877;31;33361;-55
2022/11/25 12:15:03;;;;;;;17.08;10.65;;;;;;;10.53;72.05;100908.75;5550631;32;33795;-55
2022/11/25 12:18:42;;;;;;;16.27;10.13;;;;;;;10.56;71.69;100908.19;5565043;31;33704;-55
2022/11/25 12:21:44;;;;;;;15.90;9.55;;;;;;;10.70;74.14;100911.19;5556403;32;33391;-55
2022/11/25 12:25:05;;;;;;;12.77;8.30;;;;;;;10.72;72.27;100909.81;5569786;31;33675;-56
2022/11/25 12:28:22;;;;;;;15.35;8.80;;;;;;;10.68;70.00;100899.91;5584251;31;33626;-55
2022/11/25 12:31:29;;;;;;;13.93;8.98;;;;;;;10.71;69.33;100902.06;5569532;31;33700;-55
2022/11/25 12:34:45;;;;;;;18.30;8.93;;;;;;;10.72;70.86;100912.50;5560144;32;33758;-55
2022/11/25 12:37:47;;;;;;;;;;;;;;;10.71;69.04;100904.75;5564909;31;33704;-55
2022/11/25 12:41:02;;;;;;;14.50;8.55;;;;;;;10.75;69.06;100903.94;5565863;31;34027;-56
2022/11/25 12:44:13;;;;;;;14.68;8.75;;;;;;;10.73;69.08;100908.78;5566655;32;34467;-56
2022/11/25 12:47:15;;;;;;;16.62;8.80;;;;;;;10.76;69.56;100900.19;5567203;31;33726;-55
2022/11/25 12:50:30;;;;;;;15.60;8.70;;;;;;;10.70;69.22;100903.94;5563117;31;33894;-55
2022/11/25 12:53:50;;;;;;;11.85;7.78;;;;;;;10.69;68.97;100894.25;5564505;31;32052;-55
2022/11/25 12:57:30;;;;;;;13.65;8.57;;;;;;;10.77;68.74;100895.63;5568026;32;32280;-55
2022/11/25 13:00:41;;;;;;;14.07;8.55;;;;;;;10.87;66.03;100901.00;5566691;31;33721;-55
2022/11/25 13:04:13;;;;;;;15.98;8.35;;;;;;;10.71;66.11;100900.19;5569485;31;34436;-56
2022/11/25 13:07:55;;;;;;;11.95;7.20;;;;;;;10.62;67.59;100901.78;5558758;32;33692;-55
2022/11/25 13:11:42;;;;;;;13.23;8.23;;;;;;;10.73;74.80;100907.97;5545095;32;33667;-55
2022/11/25 13:15:15;;;;;;;15.02;8.60;;;;;;;10.78;66.72;100899.91;5566837;32;34469;-55
2022/11/25 13:18:22;;;;;;;14.27;8.35;;;;;;;10.81;67.48;100897.50;5563131;32;34310;-57
2022/11/25 13:21:26;;;;;;;19.27;7.78;;;;;;;10.81;68.28;100900.16;5566142;32;32349;-55
2022/11/25 13:24:48;;;;;;;16.08;8.55;;;;;;;10.92;65.64;100900.97;5565824;32;33699;-55
2022/11/25 13:27:53;;;;;;;14.35;9.00;;;;;;;10.91;66.95;100899.38;5566178;32;33720;-55
2022/11/25 13:31:14;;;;;;;14.98;9.25;;;;;;;10.79;68.31;100891.59;5561135;32;33762;-55
2022/11/25 13:34:20;;;;;;;13.40;9.15;;;;;;;10.80;74.10;100895.88;5563717;32;33664;-55
2022/11/25 13:37:40;;;;;;;13.98;9.48;;;;;;;10.86;74.87;100901.25;5568192;32;33777;-56
2022/11/25 13:40:55;;;;;;;15.45;9.38;;;;;;;10.82;70.92;100912.50;5556042;32;34380;-55
2022/11/25 13:44:13;;;;;;;12.98;8.48;;;;;;;10.85;79.28;100915.72;5560146;32;33793;-56
2022/11/25 13:47:30;;;;;;;16.73;9.40;;;;;;;10.87;73.73;100916.28;5560908;32;33267;-55
2022/11/25 13:50:33;;;;;;;15.10;9.63;;;;;;;10.84;72.61;100920.28;5551238;32;34647;-55
2022/11/25 13:54:00;;;;;;;15.27;9.20;;;;;;;10.80;72.96;100924.59;5550896;32;33725;-55
2022/11/25 13:57:42;;;;;;;19.50;8.75;;;;;;;10.80;76.96;100927.28;5568356;32;33846;-55
2022/11/25 14:00:57;;;;;;;13.80;8.88;;;;;;;10.79;70.65;100929.16;5568979;32;34238;-55
2022/11/25 14:04:04;;;;;;;16.70;10.65;;;;;;;10.80;71.92;100935.31;5569565;32;33783;-57
2022/11/25 14:07:20;;;;;;;20.55;10.73;;;;;;;10.87;75.23;100927.00;5569359;32;33358;-56
2022/11/25 14:10:50;;;;;;;20.05;12.30;;;;;;;10.91;82.04;100938.81;5570277;32;33722;-55
2022/11/25 14:13:58;;;;;;;20.62;14.10;;;;;;;10.95;73.75;100939.88;5554521;32;33681;-55
2022/11/25 14:17:38;;;;;;;19.00;13.05;;;;;;;11.06;85.59;100944.19;5570411;32;34353;-55
2022/11/25 14:20:46;;;;;;;21.20;13.93;;;;;;;10.92;73.46;100938.53;5568202;32;33826;-55
2022/11/25 14:24:16;;;;;;;25.23;15.63;;;;;;;10.94;73.55;100954.38;5570040;32;34335;-55
2022/11/25 14:27:25;;;;;;;23.45;16.02;;;;;;;10.87;74.25;100953.81;5570323;32;33690;-56
2022/11/25 14:30:28;;;;;;;28.05;17.17;;;;;;;10.80;75.10;100952.22;5570208;32;33638;-55
2022/11/25 14:33:37;;;;;;;23.25;15.70;;;;;;;10.81;76.40;100950.34;5570101;32;33737;-55
2022/11/25 14:36:48;;;;;;;27.37;15.65;;;;;;;10.76;75.65;100953.00;5569713;32;33756;-55
2022/11/25 14:40:08;;;;;;;24.90;16.67;;;;;;;10.76;76.46;100951.16;5570160;32;33560;-56
2022/11/25 14:43:18;;;;;;;24.73;16.27;;;;;;;10.75;75.40;100957.56;5568925;32;33682;-55
2022/11/25 14:46:24;;;;;;;22.48;15.30;;;;;;;10.65;77.08;100954.88;5569825;32;33663;-56
2022/11/25 14:49:42;;;;;;;25.60;16.73;;;;;;;10.61;78.75;100956.47;5570126;32;33619;-55
2022/11/25 14:52:56;;;;;;;25.75;16.87;;;;;;;10.60;76.83;100959.44;5569495;32;34383;-55
2022/11/25 14:55:59;;;;;;;25.50;16.62;;;;;;;10.61;77.42;100953.00;5568779;32;33698;-55
2022/11/25 14:59:02;;;;;;;25.50;15.75;;;;;;;10.58;81.15;100965.06;5569846;32;33637;-55
2022/11/25 15:02:04;;;;;;;28.10;18.67;;;;;;;10.59;76.93;100969.34;5568041;32;33685;-55
2022/11/25 15:05:06;;;;;;;26.27;18.02;;;;;;;10.57;77.10;100958.87;5562042;32;33286;-55
2022/11/25 15:08:14;;;;;;;36.85;19.42;;;;;;;10.53;76.12;100954.34;5569727;32;34574;-56
2022/11/25 15:11:19;;;;;;;31.83;19.13;;;;;;;10.52;76.26;100966.91;5569642;32;33619;-55
2022/11/25 15:14:25;;;;;;;33.40;20.48;;;;;;;10.50;76.28;100962.91;5569862;32;33702;-55
2022/11/25 15:17:32;;;;;;;32.25;18.83;;;;;;;10.42;78.16;100963.41;5569518;32;34432;-55
2022/11/25 15:20:34;;;;;;;26.55;18.62;;;;;;;10.34;77.64;100970.91;5569801;32;34477;-55
2022/11/25 15:23:37;;;;;;;30.48;18.67;;;;;;;10.26;79.05;100963.34;5569032;32;34277;-55
2022/11/25 15:26:39;;;;;;;31.35;20.40;;;;;;;10.26;83.59;100968.72;5569565;32;34440;-56
2022/11/25 15:29:42;;;;;;;32.70;21.15;;;;;;;10.31;78.81;100975.97;5569741;32;34406;-55
2022/11/25 15:32:45;;;;;;;29.12;21.48;;;;;;;10.36;78.35;100975.97;5569338;32;33825;-55
2022/11/25 15:35:47;;;;;;;33.03;21.80;;;;;;;10.27;78.94;100977.59;5569783;32;33427;-55
2022/11/25 15:38:50;;;;;;;31.05;21.35;;;;;;;10.23;79.35;100982.63;5569754;32;33684;-55
2022/11/25 15:42:19;;;;;;;36.45;20.92;;;;;;;10.22;79.42;100985.56;5569703;32;34329;-55
2022/11/25 15:45:21;;;;;;;29.70;20.70;;;;;;;10.22;79.16;100980.19;5562872;31;33749;-55
2022/11/25 15:48:34;;;;;;;31.60;20.75;;;;;;;10.23;79.76;100981.81;5569481;32;34360;-55
2022/11/25 15:51:46;;;;;;;35.33;22.35;;;;;;;10.17;79.71;100988.25;5569079;32;33774;-55
2022/11/25 15:54:51;;;;;;;37.97;22.73;;;;;;;10.20;79.50;100982.31;5568603;32;33670;-55
2022/11/25 15:57:57;;;;;;;33.70;22.25;;;;;;;10.23;78.89;100988.00;5569411;32;34361;-55
2022/11/25 16:01:00;;;;;;;28.90;20.50;;;;;;;10.16;79.20;100979.37;5569638;32;34459;-55
2022/11/25 16:04:18;;;;;;;32.22;22.02;;;;;;;10.03;86.51;100977.19;5568985;32;33716;-55
2022/11/25 16:07:22;;;;;;;32.40;22.62;;;;;;;10.00;87.52;100985.72;5569586;32;34239;-55
2022/11/25 16:10:44;;;;;;;37.58;22.75;;;;;;;10.01;82.03;100987.38;5568018;32;33658;-55
2022/11/25 16:13:48;;;;;;;34.92;23.80;;;;;;;10.05;86.22;100993.81;5569471;32;33738;-55
2022/11/25 16:16:50;;;;;;;44.42;32.70;;;;;;;9.95;87.61;100991.09;5569291;32;34407;-57
2022/11/25 16:19:53;;;;;;;44.70;33.85;;;;;;;9.97;85.39;100991.62;5569393;32;34436;-55
2022/11/25 16:22:55;;;;;;;47.20;35.15;;;;;;;9.87;81.40;100995.88;5569350;32;33730;-55
2022/11/25 16:26:12;;;;;;;75.25;59.88;;;;;;;9.84;84.07;100993.72;5569281;32;34517;-56
